sensor_id;sensor_type;location;lat;lon;timestamp;temperature;humidity
50544;DHT22;41176;44.032;20.900;2024-01-15T00:02:20;1.60;99.90
50544;DHT22;41176;44.032;20.900;2024-01-15T00:04:46;1.60;99.90
50544;DHT22;41176;44.032;20.900;2024-01-15T00:07:12;1.60;99.90
50544;DHT22;41176;44.032;20.900;2024-01-15T00:09:37;1.60;99.90
50544;DHT22;41176;44.032;20.900;2024-01-15T00:12:04;1.70;99.90
50544;DHT22;41176;44.032;20.900;2024-01-15T00:14:29;1.70;99.90
50544;DHT22;41176;44.032;20.900;2024-01-15T00:16:55;1.80;99.90
50544;DHT22;41176;44.032;20.900;2024-01-15T00:19:21;1.80;99.90
50544;DHT22;41176;44.032;20.900;2024-01-15T00:21:47;1.80;99.90
50544;DHT22;41176;44.032;20.900;2024-01-15T00:24:14;1.80;99.90
50544;DHT22;41176;44.032;20.900;2024-01-15T00:26:40;1.80;99.90
50544;DHT22;41176;44.032;20.900;2024-01-15T00:29:09;1.90;99.90
50544;DHT22;41176;44.032;20.900;2024-01-15T00:31:35;1.80;99.90
50544;DHT22;41176;44.032;20.900;2024-01-15T00:34:01;1.80;99.90
50544;DHT22;41176;44.032;20.900;2024-01-15T00:36:27;1.80;99.90
50544;DHT22;41176;44.032;20.900;2024-01-15T00:38:53;1.80;99.90
50544;DHT22;41176;44.032;20.900;2024-01-15T00:41:19;1.80;99.90
50544;DHT22;41176;44.032;20.900;2024-01-15T00:43:46;1.80;99.90
50544;DHT22;41176;44.032;20.900;2024-01-15T00:46:11;1.80;99.90
50544;DHT22;41176;44.032;20.900;2024-01-15T00:48:37;1.80;99.90
50544;DHT22;41176;44.032;20.900;2024-01-15T00:51:06;1.90;99.90
50544;DHT22;41176;44.032;20.900;2024-01-15T00:53:32;1.80;99.90
50544;DHT22;41176;44.032;20.900;2024-01-15T00:55:57;1.80;99.90
50544;DHT22;41176;44.032;20.900;2024-01-15T00:58:23;1.80;99.90
50544;DHT22;41176;44.032;20.900;2024-01-15T01:00:49;1.80;99.90
50544;DHT22;41176;44.032;20.900;2024-01-15T01:03:15;1.80;99.90
50544;DHT22;41176;44.032;20.900;2024-01-15T01:05:40;1.70;99.90
50544;DHT22;41176;44.032;20.900;2024-01-15T01:08:06;1.70;99.90
50544;DHT22;41176;44.032;20.900;2024-01-15T01:10:32;1.70;99.90
50544;DHT22;41176;44.032;20.900;2024-01-15T01:12:58;1.70;99.90
50544;DHT22;41176;44.032;20.900;2024-01-15T01:15:23;1.80;99.90
50544;DHT22;41176;44.032;20.900;2024-01-15T01:17:50;1.90;99.90
50544;DHT22;41176;44.032;20.900;2024-01-15T01:20:15;1.90;99.90
50544;DHT22;41176;44.032;20.900;2024-01-15T01:22:41;2.10;99.90
50544;DHT22;41176;44.032;20.900;2024-01-15T01:25:07;2.10;99.90
50544;DHT22;41176;44.032;20.900;2024-01-15T01:27:34;2.10;99.90
50544;DHT22;41176;44.032;20.900;2024-01-15T01:30:00;2.10;99.90
50544;DHT22;41176;44.032;20.900;2024-01-15T01:32:26;2.20;99.90
50544;DHT22;41176;44.032;20.900;2024-01-15T01:34:52;2.20;99.90
50544;DHT22;41176;44.032;20.900;2024-01-15T01:37:18;2.20;99.90
50544;DHT22;41176;44.032;20.900;2024-01-15T01:39:44;2.10;99.90
50544;DHT22;41176;44.032;20.900;2024-01-15T01:42:10;2.10;99.90
50544;DHT22;41176;44.032;20.900;2024-01-15T01:44:36;2.10;99.90
50544;DHT22;41176;44.032;20.900;2024-01-15T01:47:02;2.10;99.90
50544;DHT22;41176;44.032;20.900;2024-01-15T01:49:29;2.10;99.90
50544;DHT22;41176;44.032;20.900;2024-01-15T01:51:59;2.10;99.90
50544;DHT22;41176;44.032;20.900;2024-01-15T01:54:27;2.20;99.90
50544;DHT22;41176;44.032;20.900;2024-01-15T01:56:53;2.20;99.90
50544;DHT22;41176;44.032;20.900;2024-01-15T01:59:19;2.20;99.90
50544;DHT22;41176;44.032;20.900;2024-01-15T02:01:45;2.20;99.90
50544;DHT22;41176;44.032;20.900;2024-01-15T02:04:11;2.20;99.90
50544;DHT22;41176;44.032;20.900;2024-01-15T02:06:38;2.10;99.90
50544;DHT22;41176;44.032;20.900;2024-01-15T02:09:04;2.10;99.90
50544;DHT22;41176;44.032;20.900;2024-01-15T02:11:31;2.00;99.90
50544;DHT22;41176;44.032;20.900;2024-01-15T02:13:57;1.90;99.90
50544;DHT22;41176;44.032;20.900;2024-01-15T02:16:22;1.90;99.90
50544;DHT22;41176;44.032;20.900;2024-01-15T02:18:48;1.90;99.90
50544;DHT22;41176;44.032;20.900;2024-01-15T02:21:14;1.80;99.90
50544;DHT22;41176;44.032;20.900;2024-01-15T02:23:40;1.70;99.90
50544;DHT22;41176;44.032;20.900;2024-01-15T02:26:06;1.70;99.90
50544;DHT22;41176;44.032;20.900;2024-01-15T02:28:33;1.60;99.90
50544;DHT22;41176;44.032;20.900;2024-01-15T02:30:59;1.50;99.90
50544;DHT22;41176;44.032;20.900;2024-01-15T02:33:25;1.50;99.90
50544;DHT22;41176;44.032;20.900;2024-01-15T02:35:51;1.60;99.90
50544;DHT22;41176;44.032;20.900;2024-01-15T02:38:17;1.60;99.90
50544;DHT22;41176;44.032;20.900;2024-01-15T02:40:44;1.60;99.90
50544;DHT22;41176;44.032;20.900;2024-01-15T02:43:10;1.50;99.90
50544;DHT22;41176;44.032;20.900;2024-01-15T02:45:36;1.50;99.90
50544;DHT22;41176;44.032;20.900;2024-01-15T02:48:02;1.40;99.90
50544;DHT22;41176;44.032;20.900;2024-01-15T02:50:28;1.20;99.90
50544;DHT22;41176;44.032;20.900;2024-01-15T02:52:53;1.20;99.90
50544;DHT22;41176;44.032;20.900;2024-01-15T02:55:19;1.20;99.90
50544;DHT22;41176;44.032;20.900;2024-01-15T02:57:46;1.30;99.90
50544;DHT22;41176;44.032;20.900;2024-01-15T03:00:12;1.10;99.90
50544;DHT22;41176;44.032;20.900;2024-01-15T03:02:40;1.00;99.90
50544;DHT22;41176;44.032;20.900;2024-01-15T03:05:06;1.00;99.90
50544;DHT22;41176;44.032;20.900;2024-01-15T03:07:33;0.90;99.90
50544;DHT22;41176;44.032;20.900;2024-01-15T03:09:59;0.90;99.90
50544;DHT22;41176;44.032;20.900;2024-01-15T03:12:25;1.00;99.90
50544;DHT22;41176;44.032;20.900;2024-01-15T03:14:51;1.00;99.90
50544;DHT22;41176;44.032;20.900;2024-01-15T03:17:16;0.90;99.90
50544;DHT22;41176;44.032;20.900;2024-01-15T03:19:42;1.00;99.90
50544;DHT22;41176;44.032;20.900;2024-01-15T03:22:08;0.90;99.90
50544;DHT22;41176;44.032;20.900;2024-01-15T03:24:34;0.90;99.90
50544;DHT22;41176;44.032;20.900;2024-01-15T03:27:00;0.90;99.90
50544;DHT22;41176;44.032;20.900;2024-01-15T03:29:26;0.80;99.90
50544;DHT22;41176;44.032;20.900;2024-01-15T03:31:52;0.80;99.90
50544;DHT22;41176;44.032;20.900;2024-01-15T03:34:18;0.90;99.90
50544;DHT22;41176;44.032;20.900;2024-01-15T03:36:44;0.90;99.90
50544;DHT22;41176;44.032;20.900;2024-01-15T03:39:09;0.90;99.90
50544;DHT22;41176;44.032;20.900;2024-01-15T03:41:35;1.00;99.90
50544;DHT22;41176;44.032;20.900;2024-01-15T03:44:01;0.90;99.90
50544;DHT22;41176;44.032;20.900;2024-01-15T03:46:27;0.90;99.90
50544;DHT22;41176;44.032;20.900;2024-01-15T03:48:53;0.90;99.90
50544;DHT22;41176;44.032;20.900;2024-01-15T03:51:18;1.00;99.90
50544;DHT22;41176;44.032;20.900;2024-01-15T03:53:44;1.00;99.90
50544;DHT22;41176;44.032;20.900;2024-01-15T03:56:10;1.00;99.90
50544;DHT22;41176;44.032;20.900;2024-01-15T03:58:36;1.00;99.90
50544;DHT22;41176;44.032;20.900;2024-01-15T04:01:02;0.90;99.90
50544;DHT22;41176;44.032;20.900;2024-01-15T04:03:28;0.90;99.90
50544;DHT22;41176;44.032;20.900;2024-01-15T04:05:53;0.90;99.90
50544;DHT22;41176;44.032;20.900;2024-01-15T04:08:19;0.90;99.90
50544;DHT22;41176;44.032;20.900;2024-01-15T04:10:45;1.00;99.90
50544;DHT22;41176;44.032;20.900;2024-01-15T04:13:10;1.00;99.90
50544;DHT22;41176;44.032;20.900;2024-01-15T04:15:36;1.00;99.90
50544;DHT22;41176;44.032;20.900;2024-01-15T04:18:03;1.00;99.90
50544;DHT22;41176;44.032;20.900;2024-01-15T04:20:29;1.10;99.90
50544;DHT22;41176;44.032;20.900;2024-01-15T04:22:55;1.20;99.90
50544;DHT22;41176;44.032;20.900;2024-01-15T04:25:20;1.30;99.90
50544;DHT22;41176;44.032;20.900;2024-01-15T04:27:46;1.40;99.90
50544;DHT22;41176;44.032;20.900;2024-01-15T04:30:12;1.50;99.90
50544;DHT22;41176;44.032;20.900;2024-01-15T04:32:38;1.60;99.90
50544;DHT22;41176;44.032;20.900;2024-01-15T04:35:04;1.60;99.90
50544;DHT22;41176;44.032;20.900;2024-01-15T04:37:29;1.70;99.90
50544;DHT22;41176;44.032;20.900;2024-01-15T04:39:55;1.80;99.90
50544;DHT22;41176;44.032;20.900;2024-01-15T04:42:23;1.70;99.90
50544;DHT22;41176;44.032;20.900;2024-01-15T04:44:49;1.70;99.90
50544;DHT22;41176;44.032;20.900;2024-01-15T04:47:15;1.70;99.90
50544;DHT22;41176;44.032;20.900;2024-01-15T04:49:40;1.70;99.90
50544;DHT22;41176;44.032;20.900;2024-01-15T04:52:06;1.70;99.90
50544;DHT22;41176;44.032;20.900;2024-01-15T04:54:35;1.70;99.90
50544;DHT22;41176;44.032;20.900;2024-01-15T04:57:01;1.50;99.90
50544;DHT22;41176;44.032;20.900;2024-01-15T04:59:28;1.60;99.90
50544;DHT22;41176;44.032;20.900;2024-01-15T05:01:54;1.50;99.90
50544;DHT22;41176;44.032;20.900;2024-01-15T05:04:20;1.50;99.90
50544;DHT22;41176;44.032;20.900;2024-01-15T05:06:46;1.60;99.90
50544;DHT22;41176;44.032;20.900;2024-01-15T05:09:12;1.60;99.90
50544;DHT22;41176;44.032;20.900;2024-01-15T05:11:39;1.60;99.90
50544;DHT22;41176;44.032;20.900;2024-01-15T05:14:05;1.70;99.90
50544;DHT22;41176;44.032;20.900;2024-01-15T05:16:30;1.80;99.90
50544;DHT22;41176;44.032;20.900;2024-01-15T05:18:56;1.90;99.90
50544;DHT22;41176;44.032;20.900;2024-01-15T05:21:22;2.00;99.90
50544;DHT22;41176;44.032;20.900;2024-01-15T05:23:48;2.00;99.90
50544;DHT22;41176;44.032;20.900;2024-01-15T05:26:13;2.10;99.90
50544;DHT22;41176;44.032;20.900;2024-01-15T05:28:41;2.20;99.90
50544;DHT22;41176;44.032;20.900;2024-01-15T05:31:08;2.30;99.90
50544;DHT22;41176;44.032;20.900;2024-01-15T05:33:34;2.30;99.90
50544;DHT22;41176;44.032;20.900;2024-01-15T05:36:00;2.20;99.90
50544;DHT22;41176;44.032;20.900;2024-01-15T05:38:26;2.20;99.90
50544;DHT22;41176;44.032;20.900;2024-01-15T05:40:51;2.20;99.90
50544;DHT22;41176;44.032;20.900;2024-01-15T05:43:17;2.10;99.90
50544;DHT22;41176;44.032;20.900;2024-01-15T05:45:43;2.10;99.90
50544;DHT22;41176;44.032;20.900;2024-01-15T05:48:10;2.20;99.90
50544;DHT22;41176;44.032;20.900;2024-01-15T05:50:36;2.30;99.90
50544;DHT22;41176;44.032;20.900;2024-01-15T05:53:02;2.40;99.90
50544;DHT22;41176;44.032;20.900;2024-01-15T05:55:28;2.40;99.90
50544;DHT22;41176;44.032;20.900;2024-01-15T05:57:53;2.40;99.90
50544;DHT22;41176;44.032;20.900;2024-01-15T06:00:20;2.50;99.90
50544;DHT22;41176;44.032;20.900;2024-01-15T06:02:46;2.60;99.90
50544;DHT22;41176;44.032;20.900;2024-01-15T06:05:12;2.60;99.90
50544;DHT22;41176;44.032;20.900;2024-01-15T06:07:38;2.70;99.90
50544;DHT22;41176;44.032;20.900;2024-01-15T06:10:04;2.80;99.90
50544;DHT22;41176;44.032;20.900;2024-01-15T06:12:30;2.80;99.90
50544;DHT22;41176;44.032;20.900;2024-01-15T06:14:57;2.90;99.90
50544;DHT22;41176;44.032;20.900;2024-01-15T06:17:23;2.90;99.90
50544;DHT22;41176;44.032;20.900;2024-01-15T06:19:49;3.00;99.90
50544;DHT22;41176;44.032;20.900;2024-01-15T06:22:14;2.90;99.90
50544;DHT22;41176;44.032;20.900;2024-01-15T06:24:40;3.00;99.90
50544;DHT22;41176;44.032;20.900;2024-01-15T06:27:06;3.00;99.90
50544;DHT22;41176;44.032;20.900;2024-01-15T06:29:32;2.90;99.90
50544;DHT22;41176;44.032;20.900;2024-01-15T06:31:57;2.90;99.90
50544;DHT22;41176;44.032;20.900;2024-01-15T06:34:23;2.90;99.90
50544;DHT22;41176;44.032;20.900;2024-01-15T06:36:49;2.90;99.90
50544;DHT22;41176;44.032;20.900;2024-01-15T06:39:15;3.00;99.90
50544;DHT22;41176;44.032;20.900;2024-01-15T06:41:40;3.00;99.90
50544;DHT22;41176;44.032;20.900;2024-01-15T06:44:10;3.00;99.90
50544;DHT22;41176;44.032;20.900;2024-01-15T06:46:36;3.00;99.90
50544;DHT22;41176;44.032;20.900;2024-01-15T06:49:02;3.10;99.90
50544;DHT22;41176;44.032;20.900;2024-01-15T06:51:29;3.10;99.90
50544;DHT22;41176;44.032;20.900;2024-01-15T06:53:55;3.10;99.90
50544;DHT22;41176;44.032;20.900;2024-01-15T06:56:21;3.10;99.90
50544;DHT22;41176;44.032;20.900;2024-01-15T06:58:46;3.20;99.90
50544;DHT22;41176;44.032;20.900;2024-01-15T07:01:12;3.30;99.90
50544;DHT22;41176;44.032;20.900;2024-01-15T07:03:38;3.30;99.90
50544;DHT22;41176;44.032;20.900;2024-01-15T07:06:04;3.30;99.90
50544;DHT22;41176;44.032;20.900;2024-01-15T07:08:30;3.30;99.90
50544;DHT22;41176;44.032;20.900;2024-01-15T07:10:56;3.40;99.90
50544;DHT22;41176;44.032;20.900;2024-01-15T07:13:22;3.40;99.90
50544;DHT22;41176;44.032;20.900;2024-01-15T07:15:47;3.50;99.90
50544;DHT22;41176;44.032;20.900;2024-01-15T07:18:13;3.40;99.90
50544;DHT22;41176;44.032;20.900;2024-01-15T07:20:39;3.40;99.90
50544;DHT22;41176;44.032;20.900;2024-01-15T07:23:04;3.50;99.90
50544;DHT22;41176;44.032;20.900;2024-01-15T07:25:30;3.50;99.90
50544;DHT22;41176;44.032;20.900;2024-01-15T07:27:56;3.60;99.90
50544;DHT22;41176;44.032;20.900;2024-01-15T07:30:21;3.60;99.90
50544;DHT22;41176;44.032;20.900;2024-01-15T07:32:47;3.70;99.90
50544;DHT22;41176;44.032;20.900;2024-01-15T07:35:14;3.70;99.90
50544;DHT22;41176;44.032;20.900;2024-01-15T07:37:41;3.70;99.90
50544;DHT22;41176;44.032;20.900;2024-01-15T07:40:07;3.80;99.90
50544;DHT22;41176;44.032;20.900;2024-01-15T07:42:34;3.90;99.90
50544;DHT22;41176;44.032;20.900;2024-01-15T07:45:00;3.90;99.90
50544;DHT22;41176;44.032;20.900;2024-01-15T07:47:26;4.00;99.90
50544;DHT22;41176;44.032;20.900;2024-01-15T07:49:53;4.00;99.90
50544;DHT22;41176;44.032;20.900;2024-01-15T07:52:19;4.00;99.90
50544;DHT22;41176;44.032;20.900;2024-01-15T07:54:45;4.10;99.90
50544;DHT22;41176;44.032;20.900;2024-01-15T07:57:11;4.20;99.90
50544;DHT22;41176;44.032;20.900;2024-01-15T07:59:36;4.30;99.90
50544;DHT22;41176;44.032;20.900;2024-01-15T08:02:02;4.40;99.90
50544;DHT22;41176;44.032;20.900;2024-01-15T08:04:28;4.50;99.90
50544;DHT22;41176;44.032;20.900;2024-01-15T08:06:54;4.60;99.90
50544;DHT22;41176;44.032;20.900;2024-01-15T08:09:20;4.60;99.90
50544;DHT22;41176;44.032;20.900;2024-01-15T08:11:46;4.80;99.90
50544;DHT22;41176;44.032;20.900;2024-01-15T08:14:12;4.80;99.90
50544;DHT22;41176;44.032;20.900;2024-01-15T08:16:38;4.90;99.90
50544;DHT22;41176;44.032;20.900;2024-01-15T08:19:05;4.90;99.90
50544;DHT22;41176;44.032;20.900;2024-01-15T08:21:31;4.90;99.90
50544;DHT22;41176;44.032;20.900;2024-01-15T08:24:00;4.80;99.90
50544;DHT22;41176;44.032;20.900;2024-01-15T08:26:27;4.80;99.90
50544;DHT22;41176;44.032;20.900;2024-01-15T08:28:53;4.80;99.90
50544;DHT22;41176;44.032;20.900;2024-01-15T08:31:19;4.70;99.90
50544;DHT22;41176;44.032;20.900;2024-01-15T08:33:45;4.60;99.90
50544;DHT22;41176;44.032;20.900;2024-01-15T08:36:10;4.60;99.90
50544;DHT22;41176;44.032;20.900;2024-01-15T08:38:36;4.60;99.90
50544;DHT22;41176;44.032;20.900;2024-01-15T08:41:02;4.50;99.90
50544;DHT22;41176;44.032;20.900;2024-01-15T08:43:28;4.60;99.90
50544;DHT22;41176;44.032;20.900;2024-01-15T08:45:53;4.60;99.90
50544;DHT22;41176;44.032;20.900;2024-01-15T08:48:19;4.60;99.90
50544;DHT22;41176;44.032;20.900;2024-01-15T08:50:45;4.60;99.90
50544;DHT22;41176;44.032;20.900;2024-01-15T08:53:14;4.50;99.90
50544;DHT22;41176;44.032;20.900;2024-01-15T08:55:40;4.50;99.90
50544;DHT22;41176;44.032;20.900;2024-01-15T08:58:08;4.50;99.90
50544;DHT22;41176;44.032;20.900;2024-01-15T09:00:34;4.70;99.90
50544;DHT22;41176;44.032;20.900;2024-01-15T09:03:00;4.80;99.90
50544;DHT22;41176;44.032;20.900;2024-01-15T09:05:26;4.80;99.90
50544;DHT22;41176;44.032;20.900;2024-01-15T09:07:51;4.90;99.90
50544;DHT22;41176;44.032;20.900;2024-01-15T09:10:18;4.90;99.90
50544;DHT22;41176;44.032;20.900;2024-01-15T09:12:44;4.90;99.90
50544;DHT22;41176;44.032;20.900;2024-01-15T09:15:09;4.90;99.90
50544;DHT22;41176;44.032;20.900;2024-01-15T09:17:35;4.80;99.90
50544;DHT22;41176;44.032;20.900;2024-01-15T09:20:01;4.70;99.90
50544;DHT22;41176;44.032;20.900;2024-01-15T09:22:27;4.70;99.90
50544;DHT22;41176;44.032;20.900;2024-01-15T09:24:53;4.70;99.90
50544;DHT22;41176;44.032;20.900;2024-01-15T09:27:18;4.70;99.90
50544;DHT22;41176;44.032;20.900;2024-01-15T09:29:44;4.60;99.90
50544;DHT22;41176;44.032;20.900;2024-01-15T09:32:12;4.70;99.90
50544;DHT22;41176;44.032;20.900;2024-01-15T09:34:38;4.70;99.90
50544;DHT22;41176;44.032;20.900;2024-01-15T09:37:04;4.70;99.90
50544;DHT22;41176;44.032;20.900;2024-01-15T09:39:30;4.70;99.90
50544;DHT22;41176;44.032;20.900;2024-01-15T09:41:58;4.60;99.90
50544;DHT22;41176;44.032;20.900;2024-01-15T09:44:24;4.60;99.90
50544;DHT22;41176;44.032;20.900;2024-01-15T09:46:50;4.70;99.90
50544;DHT22;41176;44.032;20.900;2024-01-15T09:49:17;4.60;99.90
50544;DHT22;41176;44.032;20.900;2024-01-15T09:51:43;4.60;99.90
50544;DHT22;41176;44.032;20.900;2024-01-15T09:54:09;4.50;99.90
50544;DHT22;41176;44.032;20.900;2024-01-15T09:56:36;4.50;99.90
50544;DHT22;41176;44.032;20.900;2024-01-15T09:59:02;4.40;99.90
50544;DHT22;41176;44.032;20.900;2024-01-15T10:01:32;4.40;99.90
50544;DHT22;41176;44.032;20.900;2024-01-15T10:03:58;4.40;99.90
50544;DHT22;41176;44.032;20.900;2024-01-15T10:06:27;4.40;99.90
50544;DHT22;41176;44.032;20.900;2024-01-15T10:08:57;4.40;99.90
50544;DHT22;41176;44.032;20.900;2024-01-15T10:11:26;4.40;99.90
50544;DHT22;41176;44.032;20.900;2024-01-15T10:13:52;4.40;99.90
50544;DHT22;41176;44.032;20.900;2024-01-15T10:16:21;4.30;99.90
50544;DHT22;41176;44.032;20.900;2024-01-15T10:18:49;4.30;99.90
50544;DHT22;41176;44.032;20.900;2024-01-15T10:21:14;4.30;99.90
50544;DHT22;41176;44.032;20.900;2024-01-15T10:23:41;4.30;99.90
50544;DHT22;41176;44.032;20.900;2024-01-15T10:26:07;4.30;99.90
50544;DHT22;41176;44.032;20.900;2024-01-15T10:28:33;4.50;99.90
50544;DHT22;41176;44.032;20.900;2024-01-15T10:30:59;4.60;99.90
50544;DHT22;41176;44.032;20.900;2024-01-15T10:33:26;4.50;99.90
50544;DHT22;41176;44.032;20.900;2024-01-15T10:35:56;4.50;99.90
50544;DHT22;41176;44.032;20.900;2024-01-15T10:38:23;4.60;99.90
50544;DHT22;41176;44.032;20.900;2024-01-15T10:40:53;4.60;99.90
50544;DHT22;41176;44.032;20.900;2024-01-15T10:43:19;4.60;99.90
50544;DHT22;41176;44.032;20.900;2024-01-15T10:45:46;4.50;99.90
50544;DHT22;41176;44.032;20.900;2024-01-15T10:48:12;4.60;99.90
50544;DHT22;41176;44.032;20.900;2024-01-15T10:50:39;4.50;99.90
50544;DHT22;41176;44.032;20.900;2024-01-15T10:53:05;4.60;99.90
50544;DHT22;41176;44.032;20.900;2024-01-15T10:55:32;4.70;99.90
50544;DHT22;41176;44.032;20.900;2024-01-15T10:57:59;4.80;99.90
50544;DHT22;41176;44.032;20.900;2024-01-15T11:00:25;4.80;99.90
50544;DHT22;41176;44.032;20.900;2024-01-15T11:02:52;4.90;99.90
50544;DHT22;41176;44.032;20.900;2024-01-15T11:05:21;5.00;99.90
50544;DHT22;41176;44.032;20.900;2024-01-15T11:07:50;5.10;99.90
50544;DHT22;41176;44.032;20.900;2024-01-15T11:10:39;5.10;99.90
50544;DHT22;41176;44.032;20.900;2024-01-15T11:18:34;4.90;99.90
50544;DHT22;41176;44.032;20.900;2024-01-15T11:23:44;5.10;99.90
50544;DHT22;41176;44.032;20.900;2024-01-15T11:26:45;5.20;99.90
50544;DHT22;41176;44.032;20.900;2024-01-15T11:29:38;5.40;99.90
50544;DHT22;41176;44.032;20.900;2024-01-15T11:32:08;5.50;99.90
50544;DHT22;41176;44.032;20.900;2024-01-15T11:34:53;5.60;99.90
50544;DHT22;41176;44.032;20.900;2024-01-15T11:37:25;5.60;99.90
50544;DHT22;41176;44.032;20.900;2024-01-15T11:40:01;5.70;99.90
50544;DHT22;41176;44.032;20.900;2024-01-15T11:42:29;5.80;99.90
50544;DHT22;41176;44.032;20.900;2024-01-15T11:44:55;5.90;99.90
50544;DHT22;41176;44.032;20.900;2024-01-15T11:50:12;6.10;99.90
50544;DHT22;41176;44.032;20.900;2024-01-15T11:52:39;6.10;99.90
50544;DHT22;41176;44.032;20.900;2024-01-15T11:55:22;6.20;99.90
50544;DHT22;41176;44.032;20.900;2024-01-15T11:57:54;6.30;99.90
50544;DHT22;41176;44.032;20.900;2024-01-15T12:00:22;6.30;99.90
50544;DHT22;41176;44.032;20.900;2024-01-15T12:02:49;6.30;99.90
50544;DHT22;41176;44.032;20.900;2024-01-15T12:05:16;6.30;99.90
50544;DHT22;41176;44.032;20.900;2024-01-15T12:07:43;6.30;99.90
50544;DHT22;41176;44.032;20.900;2024-01-15T12:10:20;6.40;99.90
50544;DHT22;41176;44.032;20.900;2024-01-15T12:15:25;6.20;99.90
50544;DHT22;41176;44.032;20.900;2024-01-15T12:17:52;6.10;99.90
50544;DHT22;41176;44.032;20.900;2024-01-15T12:20:18;5.90;99.90
50544;DHT22;41176;44.032;20.900;2024-01-15T12:22:44;5.80;99.90
50544;DHT22;41176;44.032;20.900;2024-01-15T12:25:11;5.70;99.90
50544;DHT22;41176;44.032;20.900;2024-01-15T12:27:37;5.60;99.90
50544;DHT22;41176;44.032;20.900;2024-01-15T12:30:04;5.60;99.90
50544;DHT22;41176;44.032;20.900;2024-01-15T12:32:29;5.70;99.90
50544;DHT22;41176;44.032;20.900;2024-01-15T12:34:55;5.60;99.90
50544;DHT22;41176;44.032;20.900;2024-01-15T12:37:21;5.50;99.90
50544;DHT22;41176;44.032;20.900;2024-01-15T12:39:47;5.40;99.90
50544;DHT22;41176;44.032;20.900;2024-01-15T12:42:16;5.40;99.90
50544;DHT22;41176;44.032;20.900;2024-01-15T12:44:43;5.40;99.90
50544;DHT22;41176;44.032;20.900;2024-01-15T12:47:10;5.20;99.90
50544;DHT22;41176;44.032;20.900;2024-01-15T12:49:37;5.00;99.90
50544;DHT22;41176;44.032;20.900;2024-01-15T12:52:03;5.00;99.90
50544;DHT22;41176;44.032;20.900;2024-01-15T12:54:29;4.90;99.90
50544;DHT22;41176;44.032;20.900;2024-01-15T12:56:55;4.90;99.90
50544;DHT22;41176;44.032;20.900;2024-01-15T12:59:20;5.00;99.90
50544;DHT22;41176;44.032;20.900;2024-01-15T13:01:46;4.90;99.90
50544;DHT22;41176;44.032;20.900;2024-01-15T13:04:24;4.80;99.90
50544;DHT22;41176;44.032;20.900;2024-01-15T13:06:50;4.80;99.90
50544;DHT22;41176;44.032;20.900;2024-01-15T13:09:17;4.80;99.90
50544;DHT22;41176;44.032;20.900;2024-01-15T13:11:46;4.80;99.90
50544;DHT22;41176;44.032;20.900;2024-01-15T13:14:12;4.70;99.90
50544;DHT22;41176;44.032;20.900;2024-01-15T13:16:41;4.70;99.90
50544;DHT22;41176;44.032;20.900;2024-01-15T13:19:10;4.60;99.90
50544;DHT22;41176;44.032;20.900;2024-01-15T13:21:38;4.70;99.90
50544;DHT22;41176;44.032;20.900;2024-01-15T13:24:04;4.70;99.90
50544;DHT22;41176;44.032;20.900;2024-01-15T13:26:32;4.70;99.90
50544;DHT22;41176;44.032;20.900;2024-01-15T13:29:01;4.80;99.90
50544;DHT22;41176;44.032;20.900;2024-01-15T13:31:30;4.90;99.90
50544;DHT22;41176;44.032;20.900;2024-01-15T13:33:56;4.90;99.90
50544;DHT22;41176;44.032;20.900;2024-01-15T13:36:22;5.00;99.90
50544;DHT22;41176;44.032;20.900;2024-01-15T13:38:52;5.10;99.90
50544;DHT22;41176;44.032;20.900;2024-01-15T13:41:20;5.10;99.90
50544;DHT22;41176;44.032;20.900;2024-01-15T13:43:50;5.10;99.90
50544;DHT22;41176;44.032;20.900;2024-01-15T13:46:16;5.10;99.90
50544;DHT22;41176;44.032;20.900;2024-01-15T13:48:43;5.20;99.90
50544;DHT22;41176;44.032;20.900;2024-01-15T13:51:09;5.20;99.90
50544;DHT22;41176;44.032;20.900;2024-01-15T13:53:35;5.30;99.90
50544;DHT22;41176;44.032;20.900;2024-01-15T13:56:03;5.30;99.90
50544;DHT22;41176;44.032;20.900;2024-01-15T13:58:30;5.40;99.90
50544;DHT22;41176;44.032;20.900;2024-01-15T14:00:56;5.50;99.90
50544;DHT22;41176;44.032;20.900;2024-01-15T14:03:22;5.50;99.90
50544;DHT22;41176;44.032;20.900;2024-01-15T14:05:47;5.60;99.90
50544;DHT22;41176;44.032;20.900;2024-01-15T14:08:13;5.60;99.90
50544;DHT22;41176;44.032;20.900;2024-01-15T14:10:39;5.60;99.90
50544;DHT22;41176;44.032;20.900;2024-01-15T14:13:05;5.60;99.90
50544;DHT22;41176;44.032;20.900;2024-01-15T14:15:31;5.70;99.90
50544;DHT22;41176;44.032;20.900;2024-01-15T14:17:56;5.70;99.90
50544;DHT22;41176;44.032;20.900;2024-01-15T14:20:23;5.70;99.90
50544;DHT22;41176;44.032;20.900;2024-01-15T14:22:49;5.80;99.90
50544;DHT22;41176;44.032;20.900;2024-01-15T14:25:15;5.90;99.90
50544;DHT22;41176;44.032;20.900;2024-01-15T14:27:40;5.90;99.90
50544;DHT22;41176;44.032;20.900;2024-01-15T14:30:06;6.00;99.90
50544;DHT22;41176;44.032;20.900;2024-01-15T14:32:34;6.00;99.90
50544;DHT22;41176;44.032;20.900;2024-01-15T14:35:00;6.00;99.90
50544;DHT22;41176;44.032;20.900;2024-01-15T14:37:25;6.10;99.90
50544;DHT22;41176;44.032;20.900;2024-01-15T14:39:51;6.10;99.90
50544;DHT22;41176;44.032;20.900;2024-01-15T14:42:17;6.10;99.90
50544;DHT22;41176;44.032;20.900;2024-01-15T14:44:43;6.10;99.90
50544;DHT22;41176;44.032;20.900;2024-01-15T14:47:09;6.10;99.90
50544;DHT22;41176;44.032;20.900;2024-01-15T14:49:35;6.20;99.90
50544;DHT22;41176;44.032;20.900;2024-01-15T14:52:01;6.20;99.90
50544;DHT22;41176;44.032;20.900;2024-01-15T14:54:28;6.20;99.90
50544;DHT22;41176;44.032;20.900;2024-01-15T14:56:53;6.30;99.90
50544;DHT22;41176;44.032;20.900;2024-01-15T14:59:19;6.30;99.90
50544;DHT22;41176;44.032;20.900;2024-01-15T15:01:45;6.30;99.90
50544;DHT22;41176;44.032;20.900;2024-01-15T15:04:11;6.20;99.90
50544;DHT22;41176;44.032;20.900;2024-01-15T15:06:37;6.20;99.90
50544;DHT22;41176;44.032;20.900;2024-01-15T15:09:05;6.20;99.90
50544;DHT22;41176;44.032;20.900;2024-01-15T15:11:35;6.20;99.90
50544;DHT22;41176;44.032;20.900;2024-01-15T15:14:02;6.20;99.90
50544;DHT22;41176;44.032;20.900;2024-01-15T15:16:30;6.20;99.90
50544;DHT22;41176;44.032;20.900;2024-01-15T15:18:55;6.20;99.90
50544;DHT22;41176;44.032;20.900;2024-01-15T15:21:21;6.20;99.90
50544;DHT22;41176;44.032;20.900;2024-01-15T15:23:47;6.20;99.90
50544;DHT22;41176;44.032;20.900;2024-01-15T15:26:13;6.20;99.90
50544;DHT22;41176;44.032;20.900;2024-01-15T15:28:39;6.20;99.90
50544;DHT22;41176;44.032;20.900;2024-01-15T15:31:08;6.20;99.90
50544;DHT22;41176;44.032;20.900;2024-01-15T15:33:34;6.20;99.90
50544;DHT22;41176;44.032;20.900;2024-01-15T15:36:00;6.20;99.90
50544;DHT22;41176;44.032;20.900;2024-01-15T15:38:34;6.20;99.90
50544;DHT22;41176;44.032;20.900;2024-01-15T15:40:59;6.20;99.90